createdAt,value
2023-03-24T00:01:53.796Z,94191.75
2023-03-24T00:04:21.696Z,94194.13
2023-03-24T00:06:52.538Z,94187.75
2023-03-24T00:09:19.888Z,94185.09
2023-03-24T00:11:47.113Z,94174.53
2023-03-24T00:14:14.199Z,94176.97
2023-03-24T00:16:43.092Z,94179.34
2023-03-24T00:19:15.125Z,94169.56
2023-03-24T00:21:43.416Z,94172.72
2023-03-24T00:24:12.940Z,94170.06
2023-03-24T00:26:41.563Z,94161.31
2023-03-24T00:29:11.444Z,94159.72
2023-03-24T00:31:40.380Z,94163.00
2023-03-24T00:34:08.901Z,94153.72
2023-03-24T00:36:37.177Z,94145.75
2023-03-24T00:39:06.550Z,94139.47
2023-03-24T00:41:33.943Z,94127.47
2023-03-24T00:44:03.685Z,94131.66
2023-03-24T00:46:31.059Z,94121.25
2023-03-24T00:49:06.081Z,94121.34
2023-03-24T00:51:39.738Z,94108.16
2023-03-24T00:54:09.300Z,94104.22
2023-03-24T00:56:40.864Z,94098.56
2023-03-24T00:59:10.434Z,94094.66
2023-03-24T01:01:39.751Z,94101.31
2023-03-24T01:04:08.306Z,94089.13
2023-03-24T01:06:38.660Z,94084.38
2023-03-24T01:09:07.072Z,94079.75
2023-03-24T01:11:38.706Z,94071.16
2023-03-24T01:14:06.164Z,94074.94
2023-03-24T01:16:33.143Z,94079.72
2023-03-24T01:19:00.640Z,94069.97
2023-03-24T01:21:27.921Z,94074.94
2023-03-24T01:23:55.056Z,94076.41
2023-03-24T01:26:22.234Z,94084.13
2023-03-24T01:28:49.103Z,94078.22
2023-03-24T01:31:16.212Z,94081.94
2023-03-24T01:33:43.487Z,94082.78
2023-03-24T01:36:11.139Z,94077.19
2023-03-24T01:38:38.528Z,94075.34
2023-03-24T01:41:06.658Z,94077.56
2023-03-24T01:43:36.212Z,94069.06
2023-03-24T01:46:14.367Z,94073.91
2023-03-24T01:48:47.125Z,94067.13
2023-03-24T01:51:28.184Z,94071.16
2023-03-24T01:54:03.479Z,94069.56
2023-03-24T01:56:35.295Z,94065.97
2023-03-24T01:59:10.774Z,94071.44
2023-03-24T02:01:46.058Z,94065.66
2023-03-24T02:04:39.222Z,94065.06
2023-03-24T02:07:18.583Z,94069.16
2023-03-24T02:09:46.244Z,94072.81
2023-03-24T02:12:13.704Z,94058.03
2023-03-24T02:14:42.265Z,94054.38
2023-03-24T02:17:46.590Z,94059.78
2023-03-24T02:21:02.176Z,94057.06
2023-03-24T02:23:32.086Z,94054.75
2023-03-24T02:26:19.481Z,94066.69
2023-03-24T02:29:04.448Z,94065.13
2023-03-24T02:31:56.869Z,94065.56
2023-03-24T02:34:58.436Z,94066.41
2023-03-24T02:37:46.955Z,94069.63
2023-03-24T02:40:40.720Z,94075.94
2023-03-24T02:43:37.822Z,94076.56
2023-03-24T02:46:27.958Z,94069.25
2023-03-24T02:49:09.761Z,94078.44
2023-03-24T02:52:04.237Z,94084.47
2023-03-24T02:54:44.495Z,94084.97
2023-03-24T02:57:24.008Z,94083.56
2023-03-24T03:00:22.408Z,94088.75
2023-03-24T03:03:11.998Z,94084.53
2023-03-24T03:05:49.786Z,94080.56
2023-03-24T03:08:21.182Z,94078.53
2023-03-24T03:10:50.410Z,94083.69
2023-03-24T03:13:39.843Z,94075.91
2023-03-24T03:16:16.319Z,94074.94
2023-03-24T03:18:55.064Z,94077.03
2023-03-24T03:21:25.128Z,94070.41
2023-03-24T03:23:57.307Z,94073.66
2023-03-24T03:26:29.016Z,94074.25
2023-03-24T03:29:00.042Z,94073.41
2023-03-24T03:31:34.511Z,94069.97
2023-03-24T03:34:11.319Z,94068.75
2023-03-24T03:36:59.901Z,94065.84
2023-03-24T03:39:48.450Z,94066.59
2023-03-24T03:42:16.165Z,94074.94
2023-03-24T03:44:44.136Z,94065.63
2023-03-24T03:47:11.541Z,94070.88
2023-03-24T03:49:43.776Z,94064.81
2023-03-24T03:52:10.864Z,94056.25
2023-03-24T03:54:41.812Z,94060.91
2023-03-24T03:57:10.840Z,94054.47
2023-03-24T04:00:15.949Z,94052.63
2023-03-24T04:03:02.356Z,94054.34
2023-03-24T04:05:48.197Z,94052.69
2023-03-24T04:08:17.501Z,94055.38
2023-03-24T04:11:08.248Z,94048.97
2023-03-24T04:14:23.828Z,94032.72
2023-03-24T04:17:41.621Z,94032.50
2023-03-24T04:20:14.869Z,94026.06
2023-03-24T04:22:54.222Z,94016.84
2023-03-24T04:25:58.912Z,94016.25
2023-03-24T04:28:58.495Z,94012.22
2023-03-24T04:31:29.656Z,94000.78
2023-03-24T04:34:04.266Z,93999.63
2023-03-24T04:36:54.497Z,93994.31
2023-03-24T04:39:39.111Z,93993.31
2023-03-24T04:42:23.992Z,93988.13
2023-03-24T04:44:51.692Z,93985.34
2023-03-24T04:47:57.013Z,93985.28
2023-03-24T04:50:39.329Z,93977.78
2023-03-24T04:53:11.366Z,93984.38
2023-03-24T04:55:51.009Z,93980.59
2023-03-24T04:58:38.133Z,93980.97
2023-03-24T05:01:06.088Z,93971.09
2023-03-24T05:03:38.233Z,93975.31
2023-03-24T05:06:08.500Z,93988.16
2023-03-24T05:08:35.431Z,93982.50
2023-03-24T05:11:02.519Z,93993.94
2023-03-24T05:13:31.475Z,93997.50
2023-03-24T05:16:01.491Z,93988.78
2023-03-24T05:18:47.360Z,93995.56
2023-03-24T05:21:14.474Z,94001.47
2023-03-24T05:23:41.556Z,93992.03
2023-03-24T05:26:08.505Z,93995.16
2023-03-24T05:28:46.285Z,93993.28
2023-03-24T05:31:13.427Z,93987.66
2023-03-24T05:33:55.704Z,93992.94
2023-03-24T05:36:23.764Z,94003.03
2023-03-24T05:38:54.988Z,93995.19
2023-03-24T05:41:25.006Z,94006.97
2023-03-24T05:43:51.720Z,94001.59
2023-03-24T05:46:19.173Z,94008.53
2023-03-24T05:48:47.691Z,94013.84
2023-03-24T05:51:16.556Z,94016.00
2023-03-24T05:53:44.433Z,94015.28
2023-03-24T05:56:32.671Z,94010.38
2023-03-24T05:59:12.035Z,94013.56
2023-03-24T06:01:59.461Z,94008.94
2023-03-24T06:04:46.001Z,94011.13
2023-03-24T06:07:16.712Z,94022.38
2023-03-24T06:09:51.141Z,94020.41
2023-03-24T06:12:19.004Z,94019.78
2023-03-24T06:14:56.161Z,94014.97
2023-03-24T06:17:24.883Z,94023.13
2023-03-24T06:20:02.789Z,94016.81
2023-03-24T06:22:44.721Z,94021.69
2023-03-24T06:25:16.910Z,94018.41
2023-03-24T06:27:53.774Z,94021.38
2023-03-24T06:30:23.772Z,94018.69
2023-03-24T06:32:51.305Z,94015.41
2023-03-24T06:35:19.673Z,93996.75
2023-03-24T06:38:08.597Z,93983.69
2023-03-24T06:40:37.262Z,93963.41
2023-03-24T06:43:05.435Z,93953.94
2023-03-24T06:45:35.603Z,93931.38
2023-03-24T06:48:02.994Z,93961.47
2023-03-24T06:50:33.378Z,93952.16
2023-03-24T06:53:04.519Z,93956.28
2023-03-24T06:55:33.292Z,93958.91
2023-03-24T06:58:00.454Z,93972.28
2023-03-24T07:00:48.193Z,93959.81
2023-03-24T07:03:26.736Z,93974.19
2023-03-24T07:06:12.236Z,93976.78
2023-03-24T07:08:40.308Z,93981.22
2023-03-24T07:11:09.940Z,93975.41
2023-03-24T07:13:39.264Z,93974.94
2023-03-24T07:16:06.537Z,93977.00
2023-03-24T07:18:35.052Z,93974.25
2023-03-24T07:21:05.266Z,93966.97
2023-03-24T07:23:34.107Z,93955.47
2023-03-24T07:26:10.039Z,93957.25
2023-03-24T07:28:49.469Z,93960.81
2023-03-24T07:31:38.187Z,93951.59
2023-03-24T07:34:09.177Z,93958.78
2023-03-24T07:36:38.476Z,93945.97
2023-03-24T07:39:09.648Z,93969.66
2023-03-24T07:41:37.421Z,93992.06
2023-03-24T07:44:11.977Z,94002.69
2023-03-24T07:46:49.834Z,93996.59
2023-03-24T07:49:19.908Z,94012.06
2023-03-24T07:52:08.027Z,94012.06
2023-03-24T07:54:43.944Z,94035.38
2023-03-24T07:57:19.377Z,94046.53
2023-03-24T07:59:46.808Z,94056.00
2023-03-24T08:02:20.626Z,94053.81
2023-03-24T08:04:54.137Z,94049.97
2023-03-24T08:07:44.783Z,94073.16
2023-03-24T08:10:16.022Z,94071.78
2023-03-24T08:12:42.763Z,94064.28
2023-03-24T08:15:10.155Z,94053.69
2023-03-24T08:17:37.329Z,94053.72
2023-03-24T08:20:08.498Z,94060.31
2023-03-24T08:22:36.970Z,94061.50
2023-03-24T08:25:04.195Z,94072.34
2023-03-24T08:27:31.415Z,94079.06
2023-03-24T08:29:58.165Z,94076.16
2023-03-24T08:32:25.163Z,94083.47
2023-03-24T08:34:51.895Z,94094.34
2023-03-24T08:37:18.767Z,94102.22
2023-03-24T08:39:46.326Z,94107.88
2023-03-24T08:42:13.070Z,94099.00
2023-03-24T08:44:39.901Z,94102.91
2023-03-24T08:47:06.783Z,94100.09
2023-03-24T08:49:33.674Z,94103.94
2023-03-24T08:52:00.450Z,94111.22
2023-03-24T08:54:27.859Z,94115.78
2023-03-24T08:56:54.648Z,94106.94
2023-03-24T08:59:21.403Z,94111.03
2023-03-24T09:01:48.402Z,94111.50
2023-03-24T09:04:15.623Z,94113.13
2023-03-24T09:06:42.769Z,94106.84
2023-03-24T09:09:09.512Z,94114.66
2023-03-24T09:11:38.483Z,94111.25
2023-03-24T09:14:05.664Z,94099.50
2023-03-24T09:16:33.138Z,94108.84
2023-03-24T09:19:00.088Z,94112.44
2023-03-24T09:21:27.538Z,94105.03
2023-03-24T09:23:54.275Z,94108.63
2023-03-24T09:26:23.047Z,94105.03
2023-03-24T09:28:50.008Z,94101.63
2023-03-24T09:31:17.768Z,94115.00
2023-03-24T09:33:44.585Z,94113.88
2023-03-24T09:36:11.996Z,94104.78
2023-03-24T09:38:38.867Z,94121.94
2023-03-24T09:41:18.767Z,94109.88
2023-03-24T09:43:57.144Z,94119.91
2023-03-24T09:46:32.179Z,94134.59
2023-03-24T09:48:59.096Z,94131.94
2023-03-24T09:51:33.064Z,94142.63
2023-03-24T09:54:22.400Z,94140.38
2023-03-24T09:56:51.690Z,94145.41
2023-03-24T09:59:35.502Z,94151.13
2023-03-24T10:02:12.484Z,94154.38
2023-03-24T10:04:39.503Z,94158.06
2023-03-24T10:07:33.118Z,94159.72
2023-03-24T10:10:01.347Z,94167.25
2023-03-24T10:12:40.538Z,94170.97
2023-03-24T10:15:37.161Z,94175.88
2023-03-24T10:18:39.253Z,94176.72
2023-03-24T10:21:21.616Z,94190.03
2023-03-24T10:24:19.138Z,94181.97
2023-03-24T10:27:21.570Z,94187.34
2023-03-24T10:29:52.572Z,94183.75
2023-03-24T10:32:24.224Z,94182.16
2023-03-24T10:35:09.671Z,94183.78
2023-03-24T10:37:37.377Z,94192.06
2023-03-24T10:40:19.261Z,94194.88
2023-03-24T10:42:49.845Z,94203.56
2023-03-24T10:45:36.519Z,94211.41
2023-03-24T10:48:04.497Z,94215.72
2023-03-24T10:50:41.538Z,94215.31
2023-03-24T10:53:16.574Z,94208.00
2023-03-24T10:55:44.079Z,94208.22
2023-03-24T10:58:25.827Z,94206.16
2023-03-24T11:00:53.520Z,94200.13
2023-03-24T11:03:29.986Z,94207.41
2023-03-24T11:06:05.484Z,94209.84
2023-03-24T11:08:34.486Z,94218.78
2023-03-24T11:11:01.960Z,94208.00
2023-03-24T11:13:34.893Z,94217.66
2023-03-24T11:16:08.407Z,94225.88
2023-03-24T11:18:35.765Z,94222.88
2023-03-24T11:21:06.086Z,94234.81
2023-03-24T11:23:41.126Z,94228.53
2023-03-24T11:26:09.712Z,94224.72
2023-03-24T11:28:58.519Z,94233.03
2023-03-24T11:31:30.630Z,94241.53
2023-03-24T11:34:10.923Z,94237.19
2023-03-24T11:36:46.829Z,94242.00
2023-03-24T11:39:14.681Z,94226.03
2023-03-24T11:41:50.451Z,94228.84
2023-03-24T11:44:19.324Z,94225.84
2023-03-24T11:46:55.794Z,94229.03
2023-03-24T11:49:27.604Z,94218.56
2023-03-24T11:51:55.571Z,94217.84
2023-03-24T11:54:29.981Z,94197.09
2023-03-24T11:57:04.590Z,94191.44
2023-03-24T11:59:58.411Z,94179.50
2023-03-24T12:02:35.076Z,94182.72
2023-03-24T12:05:10.834Z,94177.06
2023-03-24T12:08:22.891Z,94168.69
2023-03-24T12:11:17.469Z,94136.00
2023-03-24T12:13:50.337Z,94112.56
2023-03-24T12:16:39.243Z,94116.66
2023-03-24T12:19:13.243Z,94112.84
2023-03-24T12:22:08.231Z,94118.22
2023-03-24T12:24:53.501Z,94113.09
2023-03-24T12:27:37.383Z,94110.91
2023-03-24T12:30:25.876Z,94115.34
2023-03-24T12:33:11.579Z,94104.16
2023-03-24T12:36:15.460Z,94110.81
2023-03-24T12:39:15.556Z,94108.56
2023-03-24T12:42:09.548Z,94112.09
2023-03-24T12:44:51.835Z,94137.78
2023-03-24T12:47:50.996Z,94137.25
2023-03-24T12:50:30.940Z,94136.38
2023-03-24T12:53:36.832Z,94130.19
2023-03-24T12:56:09.547Z,94141.78
2023-03-24T12:58:48.199Z,94140.47
2023-03-24T13:01:34.353Z,94126.00
2023-03-24T13:04:29.552Z,94119.75
2023-03-24T13:07:09.012Z,94122.59
2023-03-24T13:10:00.248Z,94110.59
2023-03-24T13:12:33.358Z,94108.09
2023-03-24T13:15:23.992Z,94110.69
2023-03-24T13:18:14.452Z,94108.09
2023-03-24T13:20:46.510Z,94091.44
2023-03-24T13:23:22.721Z,94085.88
2023-03-24T13:26:07.934Z,94088.66
2023-03-24T13:29:04.177Z,94093.28
2023-03-24T13:31:44.377Z,94086.22
2023-03-24T13:34:22.542Z,94091.53
2023-03-24T13:36:55.846Z,94079.88
2023-03-24T13:39:26.409Z,94077.28
2023-03-24T13:41:56.917Z,94072.84
2023-03-24T13:44:38.607Z,94076.19
2023-03-24T13:47:12.972Z,94081.88
2023-03-24T13:49:42.209Z,94086.09
2023-03-24T13:52:38.057Z,94075.91
2023-03-24T13:55:15.654Z,94083.38
2023-03-24T13:57:51.662Z,94077.13
2023-03-24T14:00:28.893Z,94073.66
2023-03-24T14:03:06.167Z,94065.00
2023-03-24T14:05:58.270Z,94069.66
2023-03-24T14:08:53.976Z,94074.75
2023-03-24T14:11:38.274Z,94062.81
2023-03-24T14:14:18.307Z,94057.56
2023-03-24T14:17:04.851Z,94039.41
2023-03-24T14:19:39.302Z,94042.88
2023-03-24T14:22:22.898Z,94022.97
2023-03-24T14:25:02.796Z,94030.34
2023-03-24T14:27:43.943Z,94028.50
2023-03-24T14:30:11.004Z,94025.91
2023-03-24T14:32:46.113Z,94024.88
2023-03-24T14:35:24.089Z,94009.88
2023-03-24T14:37:59.124Z,94016.94
2023-03-24T14:40:30.136Z,94015.81
2023-03-24T14:43:05.384Z,94005.81
2023-03-24T14:45:55.490Z,94000.97
2023-03-24T14:48:28.930Z,94012.50
2023-03-24T14:51:01.522Z,94006.66
2023-03-24T14:53:28.274Z,94014.63
2023-03-24T14:55:55.859Z,94009.97
2023-03-24T14:58:30.962Z,94013.47
2023-03-24T15:01:07.049Z,94002.53
2023-03-24T15:03:56.089Z,94017.84
2023-03-24T15:06:24.084Z,94014.91
2023-03-24T15:08:53.196Z,94024.53
2023-03-24T15:11:24.444Z,94022.75
2023-03-24T15:13:53.666Z,94020.06
2023-03-24T15:16:32.487Z,94028.78
2023-03-24T15:19:02.540Z,94038.66
2023-03-24T15:21:32.697Z,94046.38
2023-03-24T15:24:01.325Z,94030.47
2023-03-24T15:26:31.030Z,94035.81
2023-03-24T15:29:06.720Z,94045.47
2023-03-24T15:31:33.815Z,94045.59
2023-03-24T15:34:23.972Z,94052.41
2023-03-24T15:37:32.714Z,94070.91
2023-03-24T15:40:14.766Z,94081.13
2023-03-24T15:42:45.005Z,94060.81
2023-03-24T15:45:36.096Z,94091.91
2023-03-24T15:48:08.100Z,94085.53
2023-03-24T15:50:37.964Z,94098.09
2023-03-24T15:53:39.628Z,94102.03
2023-03-24T15:56:24.824Z,94089.41
2023-03-24T15:58:54.682Z,94091.38
2023-03-24T16:01:27.517Z,94096.19
2023-03-24T16:03:55.305Z,94096.47
2023-03-24T16:06:35.933Z,94105.09
2023-03-24T16:09:11.102Z,94108.50
2023-03-24T16:11:38.098Z,94104.03
2023-03-24T16:14:32.805Z,94113.19
2023-03-24T16:17:03.075Z,94113.47
2023-03-24T16:19:30.410Z,94113.53
2023-03-24T16:21:57.933Z,94131.63
2023-03-24T16:24:24.922Z,94139.16
2023-03-24T16:26:52.662Z,94145.47
2023-03-24T16:29:22.571Z,94152.56
2023-03-24T16:31:52.395Z,94161.72
2023-03-24T16:34:22.400Z,94164.03
2023-03-24T16:36:53.651Z,94168.88
2023-03-24T16:39:23.814Z,94170.50
2023-03-24T16:41:51.641Z,94160.97
2023-03-24T16:44:19.669Z,94166.66
2023-03-24T16:46:48.511Z,94167.44
2023-03-24T16:49:17.990Z,94167.16
2023-03-24T16:51:45.987Z,94161.31
2023-03-24T16:54:13.127Z,94146.47
2023-03-24T16:56:40.218Z,94144.50
2023-03-24T16:59:09.138Z,94133.22
2023-03-24T17:01:38.046Z,94131.22
2023-03-24T17:04:13.674Z,94142.59
2023-03-24T17:06:43.928Z,94136.44
2023-03-24T17:09:12.720Z,94120.88
2023-03-24T17:11:55.566Z,94108.75
2023-03-24T17:14:23.355Z,94108.59
2023-03-24T17:16:53.412Z,94113.94
2023-03-24T17:19:23.052Z,94105.81
2023-03-24T17:22:06.870Z,94099.47
2023-03-24T17:24:36.201Z,94098.22
2023-03-24T17:27:10.413Z,94111.41
2023-03-24T17:29:38.934Z,94118.09
2023-03-24T17:32:06.271Z,94139.50
2023-03-24T17:34:34.070Z,94141.09
2023-03-24T17:37:01.304Z,94136.31
2023-03-24T17:39:27.985Z,94139.44
2023-03-24T17:41:57.675Z,94149.66
2023-03-24T17:44:24.396Z,94156.72
2023-03-24T17:46:51.492Z,94161.47
2023-03-24T17:49:19.094Z,94163.97
2023-03-24T17:51:46.328Z,94152.50
2023-03-24T17:54:13.809Z,94149.31
2023-03-24T17:56:40.872Z,94141.91
2023-03-24T17:59:08.803Z,94142.50
2023-03-24T18:01:39.619Z,94140.19
2023-03-24T18:04:07.392Z,94137.56
2023-03-24T18:06:34.616Z,94125.81
2023-03-24T18:09:01.667Z,94137.75
2023-03-24T18:11:28.552Z,94127.84
2023-03-24T18:13:55.907Z,94121.31
2023-03-24T18:16:25.494Z,94124.63
2023-03-24T18:18:52.848Z,94126.09
2023-03-24T18:21:19.992Z,94134.81
2023-03-24T18:23:47.263Z,94129.09
2023-03-24T18:26:15.137Z,94127.56
2023-03-24T18:28:42.837Z,94120.31
2023-03-24T18:31:15.861Z,94126.91
2023-03-24T18:33:46.005Z,94118.06
2023-03-24T18:36:16.694Z,94123.34
2023-03-24T18:38:44.221Z,94130.44
2023-03-24T18:41:13.038Z,94115.84
2023-03-24T18:43:41.196Z,94107.88
2023-03-24T18:46:10.175Z,94118.28
2023-03-24T18:48:38.680Z,94127.38
2023-03-24T18:51:06.592Z,94132.78
2023-03-24T18:53:34.821Z,94144.75
2023-03-24T18:56:02.485Z,94147.53
2023-03-24T18:58:29.712Z,94150.47
2023-03-24T19:00:58.394Z,94151.03
2023-03-24T19:03:27.265Z,94146.63
2023-03-24T19:05:54.872Z,94154.03
2023-03-24T19:08:23.364Z,94153.31
2023-03-24T19:10:50.025Z,94141.50
2023-03-24T19:13:17.313Z,94149.81
2023-03-24T19:15:48.796Z,94150.53
2023-03-24T19:18:15.749Z,94152.00
2023-03-24T19:20:42.626Z,94155.84
2023-03-24T19:23:09.852Z,94162.19
2023-03-24T19:25:36.904Z,94176.25
2023-03-24T19:28:04.160Z,94183.03
2023-03-24T19:30:31.149Z,94191.28
2023-03-24T19:32:58.077Z,94183.38
2023-03-24T19:35:24.852Z,94187.22
2023-03-24T19:37:51.984Z,94200.38
2023-03-24T19:40:18.981Z,94197.91
2023-03-24T19:42:46.692Z,94203.00
2023-03-24T19:45:17.837Z,94202.50
2023-03-24T19:47:48.019Z,94197.06
2023-03-24T19:50:16.841Z,94209.97
2023-03-24T19:52:46.009Z,94226.28
2023-03-24T19:55:13.568Z,94229.16
2023-03-24T19:57:41.023Z,94223.50
2023-03-24T20:00:11.780Z,94242.63
2023-03-24T20:02:39.033Z,94240.56
2023-03-24T20:05:08.651Z,94245.94
2023-03-24T20:07:35.666Z,94252.16
2023-03-24T20:10:02.415Z,94254.97
2023-03-24T20:12:29.923Z,94251.72
2023-03-24T20:14:57.302Z,94253.75
2023-03-24T20:17:29.643Z,94258.63
2023-03-24T20:19:56.915Z,94257.06
2023-03-24T20:22:24.144Z,94242.13
2023-03-24T20:24:50.923Z,94244.25
2023-03-24T20:27:17.725Z,94231.28
2023-03-24T20:29:46.264Z,94217.69
2023-03-24T20:32:13.365Z,94227.47
2023-03-24T20:34:41.004Z,94217.88
2023-03-24T20:37:09.110Z,94197.53
2023-03-24T20:39:35.824Z,94208.44
2023-03-24T20:42:02.906Z,94193.75
2023-03-24T20:44:30.048Z,94203.41
2023-03-24T20:46:57.432Z,94203.56
2023-03-24T20:49:25.963Z,94191.38
2023-03-24T20:51:53.484Z,94170.34
2023-03-24T20:54:21.418Z,94167.66
2023-03-24T20:56:49.917Z,94158.50
2023-03-24T20:59:17.300Z,94186.09
2023-03-24T21:01:44.104Z,94174.38
2023-03-24T21:04:11.196Z,94186.47
2023-03-24T21:06:38.629Z,94196.38
2023-03-24T21:09:05.968Z,94193.38
2023-03-24T21:11:33.163Z,94194.94
2023-03-24T21:14:01.278Z,94201.63
2023-03-24T21:16:28.753Z,94199.63
2023-03-24T21:18:58.004Z,94205.75
2023-03-24T21:21:25.917Z,94205.47
2023-03-24T21:23:54.761Z,94211.00
2023-03-24T21:26:21.508Z,94214.59
2023-03-24T21:28:48.634Z,94218.97
2023-03-24T21:31:20.088Z,94216.31
2023-03-24T21:33:47.651Z,94211.88
2023-03-24T21:36:14.623Z,94218.66
2023-03-24T21:38:42.969Z,94212.09
2023-03-24T21:41:11.013Z,94230.22
2023-03-24T21:43:40.534Z,94212.66
2023-03-24T21:46:20.521Z,94227.22
2023-03-24T21:48:59.622Z,94216.25
2023-03-24T21:51:35.432Z,94227.00
2023-03-24T21:54:04.501Z,94232.59
2023-03-24T21:56:33.356Z,94233.97
2023-03-24T21:59:00.471Z,94241.06
2023-03-24T22:01:27.400Z,94238.81
2023-03-24T22:03:59.119Z,94244.03
2023-03-24T22:06:29.412Z,94242.00
2023-03-24T22:09:06.624Z,94238.56
2023-03-24T22:11:36.023Z,94240.72
2023-03-24T22:14:03.837Z,94241.50
2023-03-24T22:16:33.026Z,94240.31
2023-03-24T22:19:01.606Z,94242.94
2023-03-24T22:21:28.732Z,94242.22
2023-03-24T22:23:56.522Z,94245.16
2023-03-24T22:26:23.218Z,94236.75
2023-03-24T22:28:51.053Z,94237.66
2023-03-24T22:31:18.072Z,94239.41
2023-03-24T22:33:45.278Z,94247.53
2023-03-24T22:36:12.579Z,94248.03
2023-03-24T22:38:39.930Z,94249.66
2023-03-24T22:41:11.856Z,94245.06
2023-03-24T22:43:42.061Z,94248.34
2023-03-24T22:46:12.867Z,94263.25
2023-03-24T22:48:40.986Z,94254.63
2023-03-24T22:51:08.861Z,94260.56
2023-03-24T22:53:36.166Z,94269.50
2023-03-24T22:56:06.088Z,94269.88
2023-03-24T22:58:33.041Z,94266.56
2023-03-24T23:00:59.768Z,94259.06
2023-03-24T23:03:27.087Z,94269.66
2023-03-24T23:05:53.864Z,94267.50
2023-03-24T23:08:20.988Z,94277.56
2023-03-24T23:10:48.321Z,94278.44
2023-03-24T23:13:17.051Z,94271.09
2023-03-24T23:15:44.476Z,94286.25
2023-03-24T23:18:12.314Z,94285.50
2023-03-24T23:20:39.885Z,94287.22
2023-03-24T23:23:07.700Z,94286.00
2023-03-24T23:25:40.344Z,94296.03
2023-03-24T23:28:07.871Z,94296.38
2023-03-24T23:30:34.984Z,94295.94
2023-03-24T23:33:04.137Z,94304.19
2023-03-24T23:35:33.133Z,94297.97
2023-03-24T23:37:59.902Z,94305.41
2023-03-24T23:40:27.167Z,94304.88
2023-03-24T23:42:53.870Z,94300.97
2023-03-24T23:45:20.974Z,94300.28
2023-03-24T23:47:50.320Z,94299.72
2023-03-24T23:50:18.616Z,94297.97
2023-03-24T23:52:45.710Z,94300.00
2023-03-24T23:55:14.507Z,94299.69
2023-03-24T23:57:42.663Z,94299.22
